createdAt,value
2023-03-01T00:03:20.977Z,7.25
2023-03-01T00:07:45.502Z,5.72
2023-03-01T00:11:29.338Z,6.50
2023-03-01T00:14:52.779Z,5.87
2023-03-01T00:18:34.688Z,4.20
2023-03-01T00:22:03.885Z,9.68
2023-03-01T00:25:43.172Z,9.52
2023-03-01T00:29:27.610Z,6.47
2023-03-01T00:33:20.321Z,8.30
2023-03-01T00:37:07.725Z,6.05
2023-03-01T00:40:46.303Z,9.30
2023-03-01T00:44:16.046Z,8.32
2023-03-01T00:51:23.418Z,8.35
2023-03-01T00:54:42.616Z,7.12
2023-03-01T00:58:27.964Z,7.75
2023-03-01T01:01:57.303Z,9.43
2023-03-01T01:05:45.258Z,8.25
2023-03-01T01:09:18.522Z,8.30
2023-03-01T01:13:07.854Z,9.00
2023-03-01T01:16:56.776Z,9.65
2023-03-01T01:20:26.170Z,6.20
2023-03-01T01:23:45.035Z,7.47
2023-03-01T01:27:51.871Z,5.15
2023-03-01T01:31:35.862Z,10.10
2023-03-01T01:35:17.023Z,6.70
2023-03-01T01:39:08.686Z,12.30
2023-03-01T01:42:32.644Z,7.90
2023-03-01T01:46:34.911Z,7.65
2023-03-01T01:49:58.830Z,8.32
2023-03-01T01:53:40.692Z,7.62
2023-03-01T01:57:10.350Z,11.12
2023-03-01T02:00:59.276Z,15.10
2023-03-01T02:04:37.301Z,9.30
2023-03-01T02:08:17.878Z,13.20
2023-03-01T02:15:56.028Z,9.63
2023-03-01T02:19:48.209Z,7.57
2023-03-01T02:23:40.477Z,8.85
2023-03-01T02:27:07.854Z,7.75
2023-03-01T02:30:31.451Z,11.82
2023-03-01T02:34:09.815Z,7.35
2023-03-01T02:38:00.975Z,4.93
2023-03-01T02:41:48.074Z,6.35
2023-03-01T02:45:06.088Z,6.57
2023-03-01T02:53:40.493Z,5.60
2023-03-01T02:57:24.450Z,4.68
2023-03-01T03:01:00.911Z,5.25
2023-03-01T03:04:38.881Z,5.30
2023-03-01T03:08:17.828Z,5.55
2023-03-01T03:12:05.004Z,5.30
2023-03-01T03:15:37.141Z,6.85
2023-03-01T03:19:06.577Z,8.68
2023-03-01T03:22:55.977Z,7.25
2023-03-01T03:26:30.232Z,7.40
2023-03-01T03:30:10.281Z,9.00
2023-03-01T03:34:06.166Z,7.32
2023-03-01T03:38:06.180Z,5.68
2023-03-01T03:41:45.622Z,6.25
2023-03-01T03:45:19.730Z,6.00
2023-03-01T03:48:51.442Z,4.90
2023-03-01T03:52:17.426Z,7.72
2023-03-01T03:55:35.558Z,6.10
2023-03-01T03:59:09.742Z,5.72
2023-03-01T04:02:35.421Z,6.07
2023-03-01T04:06:09.291Z,8.70
2023-03-01T04:09:54.248Z,7.62
2023-03-01T04:13:29.242Z,7.12
2023-03-01T04:17:08.514Z,7.07
2023-03-01T04:20:58.963Z,6.72
2023-03-01T04:24:56.401Z,6.82
2023-03-01T04:28:44.110Z,7.57
2023-03-01T04:32:24.295Z,13.98
2023-03-01T04:36:07.701Z,5.90
2023-03-01T04:39:36.183Z,10.48
2023-03-01T04:43:23.945Z,7.05
2023-03-01T04:47:13.568Z,7.15
2023-03-01T04:55:27.634Z,5.80
2023-03-01T04:58:56.453Z,7.07
2023-03-01T05:02:32.538Z,8.23
2023-03-01T05:06:00.901Z,4.65
2023-03-01T05:09:40.696Z,4.20
2023-03-01T05:17:10.392Z,6.37
2023-03-01T05:20:37.699Z,5.78
2023-03-01T05:24:16.747Z,7.35
2023-03-01T05:27:40.253Z,7.37
2023-03-01T05:31:24.296Z,6.55
2023-03-01T05:35:22.655Z,10.32
2023-03-01T05:38:50.138Z,5.10
2023-03-01T05:42:36.882Z,9.23
2023-03-01T05:46:28.913Z,7.03
2023-03-01T05:50:05.505Z,9.43
2023-03-01T05:53:41.836Z,6.82
2023-03-01T05:57:16.005Z,7.90
2023-03-01T06:00:50.427Z,8.90
2023-03-01T06:04:37.468Z,6.22
2023-03-01T06:08:13.353Z,7.85
2023-03-01T06:11:51.302Z,6.55
2023-03-01T06:15:22.694Z,6.10
2023-03-01T06:18:47.087Z,6.68
2023-03-01T06:22:10.488Z,6.90
2023-03-01T06:25:40.774Z,6.05
2023-03-01T06:29:10.090Z,8.68
2023-03-01T06:32:28.516Z,6.03
2023-03-01T06:36:01.821Z,9.88
2023-03-01T06:39:43.561Z,6.07
2023-03-01T06:43:33.509Z,4.57
2023-03-01T06:47:23.560Z,6.97
2023-03-01T06:51:08.370Z,5.68
2023-03-01T06:54:37.101Z,6.93
2023-03-01T06:58:03.498Z,7.75
2023-03-01T07:01:29.404Z,10.38
2023-03-01T07:05:10.230Z,11.95
2023-03-01T07:08:49.896Z,6.97
2023-03-01T07:16:28.861Z,8.02
2023-03-01T07:19:51.396Z,7.57
2023-03-01T07:27:34.736Z,6.78
2023-03-01T07:31:12.911Z,4.85
2023-03-01T07:34:45.145Z,9.02
2023-03-01T07:42:37.592Z,5.22
2023-03-01T07:46:01.567Z,6.90
2023-03-01T07:49:39.389Z,7.43
2023-03-01T07:53:43.359Z,11.57
2023-03-01T07:57:26.767Z,9.35
2023-03-01T08:01:09.239Z,6.85
2023-03-01T08:04:28.206Z,7.30
2023-03-01T08:08:10.884Z,7.72
2023-03-01T08:11:39.933Z,7.80
2023-03-01T08:19:00.678Z,9.80
2023-03-01T08:22:36.708Z,9.80
2023-03-01T08:26:20.773Z,7.90
2023-03-01T08:29:56.805Z,8.52
2023-03-01T08:33:27.206Z,7.65
2023-03-01T08:36:58.558Z,5.75
2023-03-01T08:44:17.926Z,7.10
2023-03-01T08:47:37.230Z,8.05
2023-03-01T08:51:20.898Z,10.55
2023-03-01T08:54:48.516Z,9.65
2023-03-01T08:58:26.009Z,6.80
2023-03-01T09:01:59.691Z,7.07
2023-03-01T09:05:27.502Z,8.02
2023-03-01T09:09:18.458Z,8.48
2023-03-01T09:12:35.382Z,9.27
2023-03-01T09:16:20.331Z,7.78
2023-03-01T09:19:38.325Z,8.38
2023-03-01T09:23:02.462Z,10.68
2023-03-01T09:26:11.399Z,9.35
2023-03-01T09:29:58.710Z,9.25
2023-03-01T09:33:02.703Z,8.30
2023-03-01T09:36:09.399Z,7.47
2023-03-01T09:43:17.257Z,6.72
2023-03-01T09:47:28.346Z,8.10
2023-03-01T09:51:28.059Z,7.00
2023-03-01T09:54:43.931Z,7.55
2023-03-01T09:58:27.246Z,9.18
2023-03-01T10:02:15.751Z,6.28
2023-03-01T10:05:56.239Z,7.93
2023-03-01T10:09:28.317Z,10.25
2023-03-01T10:13:19.947Z,7.18
2023-03-01T10:17:32.926Z,7.30
2023-03-01T10:20:55.766Z,8.18
2023-03-01T10:24:24.337Z,8.60
2023-03-01T10:27:53.799Z,7.50
2023-03-01T10:31:24.520Z,8.32
2023-03-01T10:34:33.830Z,6.60
2023-03-01T10:38:17.679Z,7.60
2023-03-01T10:42:22.322Z,8.57
2023-03-01T10:46:30.654Z,6.45
2023-03-01T10:50:07.357Z,7.10
2023-03-01T10:53:32.668Z,6.07
2023-03-01T10:57:29.455Z,4.85
2023-03-01T11:01:07.295Z,7.43
2023-03-01T11:04:29.916Z,8.95
2023-03-01T11:07:50.387Z,10.80
2023-03-01T11:11:21.637Z,8.80
2023-03-01T11:14:46.835Z,6.62
2023-03-01T11:17:55.790Z,6.53
2023-03-01T11:22:02.518Z,6.10
2023-03-01T11:25:10.944Z,8.95
2023-03-01T11:28:46.118Z,6.72
2023-03-01T11:32:03.229Z,5.40
2023-03-01T11:35:27.873Z,7.25
2023-03-01T11:38:54.594Z,7.82
2023-03-01T11:45:55.666Z,6.62
2023-03-01T11:49:42.151Z,5.55
2023-03-01T11:53:50.805Z,5.25
2023-03-01T11:57:48.499Z,7.07
2023-03-01T12:01:29.894Z,6.80
2023-03-01T12:05:22.291Z,5.85
2023-03-01T12:09:02.090Z,5.80
2023-03-01T12:13:13.911Z,5.00
2023-03-01T12:17:10.337Z,5.05
2023-03-01T12:20:28.822Z,4.62
2023-03-01T12:23:51.360Z,5.53
2023-03-01T12:27:55.348Z,7.82
2023-03-01T12:31:37.581Z,4.35
2023-03-01T12:35:32.680Z,5.40
2023-03-01T12:39:01.014Z,5.00
2023-03-01T12:43:05.773Z,5.85
2023-03-01T12:47:06.738Z,4.43
2023-03-01T12:50:53.356Z,4.15
2023-03-01T12:54:33.816Z,4.60
2023-03-01T12:58:14.487Z,12.43
2023-03-01T13:01:55.305Z,4.37
2023-03-01T13:05:18.943Z,2.92
2023-03-01T13:08:49.129Z,4.15
2023-03-01T13:11:52.669Z,5.25
2023-03-01T13:15:26.058Z,3.67
2023-03-01T13:19:19.172Z,4.12
2023-03-01T13:22:39.735Z,4.82
2023-03-01T13:26:18.029Z,4.30
2023-03-01T13:29:50.818Z,4.10
2023-03-01T13:33:15.966Z,5.78
2023-03-01T13:36:49.730Z,5.22
2023-03-01T13:40:28.786Z,2.80
2023-03-01T13:43:58.907Z,2.97
2023-03-01T13:48:10.116Z,4.12
2023-03-01T13:51:32.571Z,3.92
2023-03-01T13:54:57.365Z,3.47
2023-03-01T13:58:33.949Z,3.05
2023-03-01T14:02:01.765Z,3.78
2023-03-01T14:09:57.510Z,3.78
2023-03-01T14:18:08.744Z,5.07
2023-03-01T14:21:59.505Z,3.80
2023-03-01T14:29:59.799Z,2.05
2023-03-01T14:33:43.607Z,4.10
2023-03-01T14:37:44.591Z,3.30
2023-03-01T14:40:55.978Z,5.00
2023-03-01T14:44:26.793Z,3.70
2023-03-01T14:48:52.639Z,2.65
2023-03-01T14:52:23.010Z,10.80
2023-03-01T14:56:01.928Z,3.17
2023-03-01T14:59:48.635Z,1.92
2023-03-01T15:03:39.188Z,3.40
2023-03-01T15:07:35.232Z,10.23
2023-03-01T15:11:01.675Z,6.03
2023-03-01T15:14:49.417Z,3.95
2023-03-01T15:18:22.846Z,8.65
2023-03-01T15:21:36.401Z,2.85
2023-03-01T15:24:48.982Z,2.65
2023-03-01T15:27:58.618Z,3.92
2023-03-01T15:31:17.602Z,4.15
2023-03-01T15:34:26.767Z,2.58
2023-03-01T15:37:53.466Z,4.90
2023-03-01T15:41:22.383Z,3.97
2023-03-01T15:44:42.671Z,2.95
2023-03-01T15:47:52.506Z,4.12
2023-03-01T15:50:58.055Z,5.60
2023-03-01T15:54:07.343Z,4.28
2023-03-01T15:57:22.059Z,3.47
2023-03-01T16:00:25.788Z,3.00
2023-03-01T16:03:59.674Z,4.65
2023-03-01T16:07:02.666Z,2.75
2023-03-01T16:10:44.315Z,3.25
2023-03-01T16:13:54.240Z,3.65
2023-03-01T16:16:59.751Z,2.72
2023-03-01T16:20:29.080Z,4.07
2023-03-01T16:23:33.234Z,21.70
2023-03-01T16:26:40.851Z,7.43
2023-03-01T16:29:43.401Z,7.57
2023-03-01T16:33:51.778Z,7.53
2023-03-01T16:37:20.610Z,7.00
2023-03-01T16:40:49.166Z,6.12
2023-03-01T16:43:57.710Z,4.85
2023-03-01T16:47:05.078Z,9.45
2023-03-01T16:50:09.633Z,5.45
2023-03-01T16:53:18.723Z,6.30
2023-03-01T16:56:41.288Z,4.97
2023-03-01T16:59:50.643Z,5.72
2023-03-01T17:02:56.062Z,6.93
2023-03-01T17:06:06.781Z,6.82
2023-03-01T17:09:10.889Z,6.47
2023-03-01T17:12:53.166Z,8.55
2023-03-01T17:16:28.073Z,8.15
2023-03-01T17:19:47.026Z,10.52
2023-03-01T17:23:30.996Z,7.78
2023-03-01T17:27:08.233Z,15.40
2023-03-01T17:30:18.271Z,12.45
2023-03-01T17:33:58.241Z,13.45
2023-03-01T17:41:38.438Z,15.93
2023-03-01T17:45:15.673Z,16.08
2023-03-01T17:48:52.062Z,18.35
2023-03-01T17:52:28.155Z,12.07
2023-03-01T17:56:00.845Z,15.27
2023-03-01T17:59:37.290Z,18.20
2023-03-01T18:03:09.549Z,15.65
2023-03-01T18:06:44.297Z,22.45
2023-03-01T18:10:27.709Z,14.05
2023-03-01T18:14:04.145Z,17.35
2023-03-01T18:17:12.132Z,20.08
2023-03-01T18:20:15.623Z,13.90
2023-03-01T18:23:21.548Z,13.13
2023-03-01T18:26:30.693Z,15.18
2023-03-01T18:29:57.361Z,15.98
2023-03-01T18:33:19.935Z,18.60
2023-03-01T18:37:09.556Z,17.95
2023-03-01T18:40:42.791Z,18.10
2023-03-01T18:43:51.156Z,14.18
2023-03-01T18:47:17.207Z,14.45
2023-03-01T18:50:54.807Z,13.73
2023-03-01T18:54:00.280Z,16.48
2023-03-01T18:57:36.779Z,15.63
2023-03-01T19:01:22.364Z,14.25
2023-03-01T19:04:28.318Z,10.38
2023-03-01T19:07:34.549Z,14.27
2023-03-01T19:11:20.286Z,15.55
2023-03-01T19:14:23.572Z,11.35
2023-03-01T19:17:35.257Z,15.73
2023-03-01T19:21:14.280Z,17.35
2023-03-01T19:24:37.643Z,13.35
2023-03-01T19:27:50.107Z,15.75
2023-03-01T19:31:36.531Z,10.85
2023-03-01T19:34:41.155Z,10.75
2023-03-01T19:38:07.003Z,13.15
2023-03-01T19:41:17.064Z,8.60
2023-03-01T19:44:41.606Z,11.10
2023-03-01T19:47:49.067Z,12.68
2023-03-01T19:50:54.697Z,12.63
2023-03-01T19:54:01.630Z,11.43
2023-03-01T19:57:04.508Z,12.68
2023-03-01T20:00:09.938Z,8.77
2023-03-01T20:03:43.401Z,12.88
2023-03-01T20:07:26.049Z,7.55
2023-03-01T20:10:52.848Z,13.60
2023-03-01T20:13:58.521Z,10.73
2023-03-01T20:17:44.743Z,8.90
2023-03-01T20:20:54.292Z,12.43
2023-03-01T20:24:36.984Z,7.75
2023-03-01T20:27:40.924Z,18.87
2023-03-01T20:30:52.671Z,9.00
2023-03-01T20:34:04.521Z,10.20
2023-03-01T20:37:48.130Z,11.55
2023-03-01T20:41:51.781Z,9.52
2023-03-01T20:49:30.635Z,17.02
2023-03-01T20:53:13.831Z,11.90
2023-03-01T20:56:21.189Z,12.90
2023-03-01T21:00:09.169Z,8.95
2023-03-01T21:03:12.134Z,9.25
2023-03-01T21:06:57.847Z,13.10
2023-03-01T21:10:20.546Z,10.35
2023-03-01T21:13:27.630Z,9.38
2023-03-01T21:16:52.652Z,13.02
2023-03-01T21:20:43.087Z,16.42
2023-03-01T21:24:06.716Z,13.07
2023-03-01T21:27:49.832Z,7.78
2023-03-01T21:31:22.625Z,8.98
2023-03-01T21:38:52.502Z,8.43
2023-03-01T21:42:19.242Z,9.13
2023-03-01T21:46:04.657Z,13.02
2023-03-01T21:49:27.404Z,7.20
2023-03-01T21:52:54.440Z,11.20
2023-03-01T21:55:58.055Z,10.32
2023-03-01T22:00:05.180Z,12.20
2023-03-01T22:03:50.426Z,11.45
2023-03-01T22:07:13.503Z,9.60
2023-03-01T22:11:23.585Z,5.82
2023-03-01T22:14:30.239Z,10.80
2023-03-01T22:17:54.636Z,8.70
2023-03-01T22:20:57.580Z,13.00
2023-03-01T22:24:24.219Z,14.20
2023-03-01T22:27:31.383Z,8.52
2023-03-01T22:30:34.671Z,10.60
2023-03-01T22:34:01.270Z,9.65
2023-03-01T22:37:07.666Z,7.35
2023-03-01T22:40:29.357Z,7.50
2023-03-01T22:43:33.626Z,14.65
2023-03-01T22:46:39.382Z,5.60
2023-03-01T22:49:59.446Z,7.57
2023-03-01T22:53:35.678Z,7.20
2023-03-01T22:57:11.476Z,6.68
2023-03-01T23:00:54.962Z,13.23
2023-03-01T23:04:19.770Z,8.80
2023-03-01T23:11:34.237Z,6.32
2023-03-01T23:15:22.131Z,7.25
2023-03-01T23:18:45.657Z,6.25
2023-03-01T23:22:33.495Z,5.32
2023-03-01T23:26:01.364Z,6.93
2023-03-01T23:33:11.750Z,9.68
2023-03-01T23:36:45.250Z,7.37
2023-03-01T23:40:08.655Z,5.68
2023-03-01T23:43:33.348Z,5.05
2023-03-01T23:46:58.148Z,5.75
2023-03-01T23:50:35.829Z,4.95
2023-03-01T23:57:35.671Z,5.22
